首页
METAR-TAF:

METAR-TAF

机场 :

格拉斯哥普雷斯特威克机场

格拉斯哥普雷斯蒂克国际机场, 苏格兰

纬度: 55-30N, 经度: 004-35W, 海拔: 20米

当前天气观测

该预报发布于49分钟前的07:50 UTC
静风
温度 9°C
湿度 93%
气压 1038 hPa
能见度10公里或以上
散云层高于400英尺
多云层高于1200英尺

METAR: EGPK 220750Z 00000KT 9999 SCT004 BKN012 09/08 Q1038

时间: 08:39 (08:39 UTC)

预报

该预报发布于3小时和45分钟前的04:54 UTC
预报有效从22日的 06点(UTC)到 23日的 06点(UTC)
风速9节,风向西转西南
能见度10公里或以上
散云层高于400英尺
多云层高于1600英尺
短暂存在
从 22日的 06点(UTC)到 22日的 24点(UTC)
能見度: 6000
多云层高于800英尺
小雨, 毛毛雨
几率 40% :
短暂存在
从 22日的 06点(UTC)到 22日的 24点(UTC)
能見度: 2000
多云层高于400英尺
雨, 毛毛雨, 轻雾
几率 30% :
短暂存在
从 23日的 00点(UTC)到 23日的 06点(UTC)
多云层高于800英尺

TAF: EGPK 220454Z 2206/2306 24009KT 9999 SCT004 BKN016 TEMPO 2206/2224 6000 -RADZ BKN008 PROB40 TEMPO 2206/2224 2000 RADZ BR BKN004 PROB30 TEMPO 2300/2306 BKN008

超过4000个机场的气象观测和天气预报(METAR&TAF报告)。

可查询的气象台以黄色和红色小点在地图上表示。

将鼠标移到小点上方,可查看气象台名称。

然后点击查看天气观测和预报。

如需切换地图:点击带黑十字的绿色按钮放大地图;点击带横线的绿色按钮缩小地图;或者点击绿色箭头查看邻近地区的地图。


METAR-TAF: